createdAt,value
2023-01-12T00:01:31.769Z,81.02
2023-01-12T00:03:58.848Z,81.17
2023-01-12T00:06:25.641Z,81.31
2023-01-12T00:08:52.370Z,81.47
2023-01-12T00:11:19.928Z,81.49
2023-01-12T00:13:46.337Z,81.43
2023-01-12T00:16:37.026Z,81.47
2023-01-12T00:19:12.326Z,81.50
2023-01-12T00:21:53.649Z,81.54
2023-01-12T00:24:20.014Z,81.65
2023-01-12T00:26:47.867Z,82.09
2023-01-12T00:29:15.234Z,82.15
2023-01-12T00:31:41.787Z,82.06
2023-01-12T00:34:08.473Z,82.20
2023-01-12T00:36:35.002Z,82.20
2023-01-12T00:39:01.399Z,82.34
2023-01-12T00:41:46.440Z,82.46
2023-01-12T00:44:31.343Z,82.57
2023-01-12T00:46:57.721Z,82.72
2023-01-12T00:49:24.081Z,82.72
2023-01-12T00:51:50.414Z,82.84
2023-01-12T00:54:16.742Z,83.09
2023-01-12T00:56:43.111Z,83.21
2023-01-12T00:59:09.448Z,82.92
2023-01-12T01:01:35.820Z,83.01
2023-01-12T01:04:02.223Z,83.05
2023-01-12T01:06:28.555Z,83.21
2023-01-12T01:08:54.816Z,83.25
2023-01-12T01:11:21.507Z,83.30
2023-01-12T01:13:48.419Z,83.39
2023-01-12T01:16:16.524Z,83.42
2023-01-12T01:18:43.140Z,83.43
2023-01-12T01:21:11.162Z,83.58
2023-01-12T01:23:37.977Z,83.77
2023-01-12T01:26:10.511Z,83.90
2023-01-12T01:28:36.906Z,83.99
2023-01-12T01:31:09.212Z,84.00
2023-01-12T01:33:35.770Z,83.88
2023-01-12T01:36:03.092Z,84.00
2023-01-12T01:38:29.554Z,84.04
2023-01-12T01:40:56.298Z,84.06
2023-01-12T01:43:25.182Z,84.27
2023-01-12T01:46:00.799Z,84.46
2023-01-12T01:48:28.865Z,84.28
2023-01-12T01:51:01.183Z,84.34
2023-01-12T01:53:31.506Z,84.47
2023-01-12T01:56:06.044Z,84.42
2023-01-12T01:58:38.544Z,84.53
2023-01-12T02:01:05.795Z,84.62
2023-01-12T02:03:36.612Z,84.61
2023-01-12T02:06:06.120Z,84.70
2023-01-12T02:08:53.726Z,84.80
2023-01-12T02:11:39.920Z,84.97
2023-01-12T02:14:24.990Z,84.94
2023-01-12T02:16:57.617Z,84.88
2023-01-12T02:19:45.231Z,84.84
2023-01-12T02:22:30.323Z,84.95
2023-01-12T02:25:24.558Z,85.07
2023-01-12T02:28:16.492Z,85.13
2023-01-12T02:31:21.446Z,85.11
2023-01-12T02:34:03.298Z,85.32
2023-01-12T02:37:21.170Z,85.42
2023-01-12T02:39:58.269Z,85.30
2023-01-12T02:42:42.665Z,85.38
2023-01-12T02:45:27.728Z,85.32
2023-01-12T02:48:06.326Z,85.40
2023-01-12T02:50:54.534Z,85.39
2023-01-12T02:53:37.892Z,85.38
2023-01-12T02:56:06.989Z,85.47
2023-01-12T02:58:43.340Z,85.48
2023-01-12T03:01:11.374Z,85.57
2023-01-12T03:03:39.120Z,85.73
2023-01-12T03:06:06.695Z,85.84
2023-01-12T03:08:36.893Z,85.93
2023-01-12T03:11:14.596Z,85.93
2023-01-12T03:13:46.343Z,85.97
2023-01-12T03:16:15.268Z,86.14
2023-01-12T03:19:01.590Z,86.08
2023-01-12T03:21:38.176Z,86.20
2023-01-12T03:24:09.462Z,86.19
2023-01-12T03:26:40.828Z,86.20
2023-01-12T03:29:13.019Z,86.29
2023-01-12T03:31:40.185Z,86.38
2023-01-12T03:34:06.981Z,86.32
2023-01-12T03:36:52.755Z,86.42
2023-01-12T03:39:29.746Z,86.36
2023-01-12T03:42:05.931Z,86.43
2023-01-12T03:44:39.380Z,86.38
2023-01-12T03:47:28.764Z,86.48
2023-01-12T03:50:17.148Z,86.66
2023-01-12T03:52:45.267Z,86.81
2023-01-12T03:55:16.233Z,86.90
2023-01-12T03:57:44.035Z,87.06
2023-01-12T04:00:12.441Z,87.15
2023-01-12T04:02:45.928Z,87.14
2023-01-12T04:05:14.177Z,87.00
2023-01-12T04:07:40.476Z,87.08
2023-01-12T04:10:07.550Z,87.17
2023-01-12T04:12:33.772Z,87.31
2023-01-12T04:15:00.032Z,87.34
2023-01-12T04:17:27.343Z,87.31
2023-01-12T04:19:53.602Z,87.25
2023-01-12T04:22:38.608Z,87.21
2023-01-12T04:25:05.146Z,87.31
2023-01-12T04:27:31.358Z,87.36
2023-01-12T04:29:57.918Z,87.47
2023-01-12T04:32:24.453Z,87.42
2023-01-12T04:34:50.772Z,87.42
2023-01-12T04:37:18.018Z,87.50
2023-01-12T04:39:44.295Z,87.57
2023-01-12T04:42:30.593Z,87.56
2023-01-12T04:44:56.860Z,87.52
2023-01-12T04:47:23.182Z,87.55
2023-01-12T04:49:49.419Z,87.56
2023-01-12T04:52:15.760Z,87.61
2023-01-12T04:54:41.990Z,87.70
2023-01-12T04:57:08.372Z,87.74
2023-01-12T04:59:34.814Z,87.81
2023-01-12T05:02:01.198Z,87.91
2023-01-12T05:04:27.697Z,87.92
2023-01-12T05:06:54.119Z,87.99
2023-01-12T05:09:38.746Z,87.93
2023-01-12T05:12:05.244Z,88.43
2023-01-12T05:14:31.491Z,88.05
2023-01-12T05:16:58.850Z,87.78
2023-01-12T05:19:25.153Z,87.69
2023-01-12T05:21:51.456Z,87.71
2023-01-12T05:24:18.015Z,87.77
2023-01-12T05:26:44.494Z,87.80
2023-01-12T05:29:11.176Z,87.75
2023-01-12T05:31:37.575Z,87.88
2023-01-12T05:34:04.002Z,87.99
2023-01-12T05:36:30.307Z,88.63
2023-01-12T05:38:56.687Z,89.17
2023-01-12T05:41:23.002Z,88.59
2023-01-12T05:43:49.684Z,87.73
2023-01-12T05:46:29.992Z,86.95
2023-01-12T05:48:57.374Z,85.90
2023-01-12T05:51:25.526Z,84.89
2023-01-12T05:53:51.807Z,84.47
2023-01-12T05:56:25.046Z,84.53
2023-01-12T05:58:53.809Z,84.70
2023-01-12T06:01:20.805Z,84.87
2023-01-12T06:03:52.176Z,85.10
2023-01-12T06:06:19.579Z,85.31
2023-01-12T06:08:46.402Z,85.52
2023-01-12T06:11:31.951Z,85.68
2023-01-12T06:13:59.845Z,85.79
2023-01-12T06:16:27.273Z,86.01
2023-01-12T06:18:54.014Z,86.21
2023-01-12T06:21:20.451Z,86.47
2023-01-12T06:23:46.701Z,86.58
2023-01-12T06:26:13.133Z,86.70
2023-01-12T06:28:39.974Z,86.80
2023-01-12T06:31:09.244Z,86.97
2023-01-12T06:33:36.066Z,87.09
2023-01-12T06:36:03.393Z,87.22
2023-01-12T06:38:31.723Z,87.23
2023-01-12T06:41:03.659Z,87.33
2023-01-12T06:43:30.116Z,87.46
2023-01-12T06:45:56.643Z,87.53
2023-01-12T06:48:25.178Z,87.63
2023-01-12T06:51:00.448Z,87.73
2023-01-12T06:53:26.831Z,87.70
2023-01-12T06:55:53.089Z,87.75
2023-01-12T06:58:19.418Z,87.86
2023-01-12T07:00:45.780Z,87.92
2023-01-12T07:03:17.612Z,87.90
2023-01-12T07:05:44.619Z,87.89
2023-01-12T07:08:15.172Z,87.88
2023-01-12T07:10:42.290Z,87.87
2023-01-12T07:13:08.670Z,87.84
2023-01-12T07:15:35.221Z,87.83
2023-01-12T07:18:01.817Z,87.86
2023-01-12T07:20:28.235Z,87.86
2023-01-12T07:22:55.170Z,87.88
2023-01-12T07:25:21.478Z,87.90
2023-01-12T07:27:49.625Z,87.90
2023-01-12T07:30:16.022Z,87.92
2023-01-12T07:32:42.293Z,87.91
2023-01-12T07:35:08.746Z,87.91
2023-01-12T07:37:35.138Z,87.88
2023-01-12T07:40:01.360Z,87.88
2023-01-12T07:42:27.782Z,87.87
2023-01-12T07:44:54.171Z,87.81
2023-01-12T07:47:20.521Z,87.79
2023-01-12T07:49:46.820Z,87.73
2023-01-12T07:52:13.742Z,87.70
2023-01-12T07:54:40.104Z,87.65
2023-01-12T07:57:08.447Z,87.56
2023-01-12T07:59:34.764Z,87.49
2023-01-12T08:02:01.148Z,87.48
2023-01-12T08:04:27.483Z,87.48
2023-01-12T08:06:53.782Z,87.50
2023-01-12T08:09:20.034Z,87.47
2023-01-12T08:11:46.325Z,87.40
2023-01-12T08:14:23.595Z,87.29
2023-01-12T08:16:51.119Z,87.19
2023-01-12T08:19:23.169Z,87.10
2023-01-12T08:21:57.907Z,86.92
2023-01-12T08:24:38.993Z,86.80
2023-01-12T08:27:07.561Z,86.71
2023-01-12T08:29:46.538Z,86.61
2023-01-12T08:32:15.563Z,86.63
2023-01-12T08:34:44.149Z,86.60
2023-01-12T08:37:13.408Z,86.39
2023-01-12T08:39:40.379Z,86.39
2023-01-12T08:42:06.987Z,86.49
2023-01-12T08:44:34.758Z,86.56
2023-01-12T08:47:03.258Z,86.74
2023-01-12T09:01:19.883Z,85.57
2023-01-12T09:03:48.552Z,84.90
2023-01-12T09:06:23.768Z,84.43
2023-01-12T09:08:56.552Z,83.49
2023-01-12T09:11:25.782Z,82.35
2023-01-12T09:13:53.537Z,81.56
2023-01-12T09:16:21.551Z,80.97
2023-01-12T09:18:49.241Z,79.57
2023-01-12T09:21:19.490Z,78.99
2023-01-12T09:23:52.662Z,78.18
2023-01-12T09:26:23.595Z,77.19
2023-01-12T09:28:51.637Z,77.43
2023-01-12T09:31:22.700Z,76.86
2023-01-12T09:33:50.582Z,76.23
2023-01-12T09:36:20.991Z,76.32
2023-01-12T09:38:49.909Z,75.93
2023-01-12T09:41:43.322Z,76.12
2023-01-12T09:44:48.490Z,76.30
2023-01-12T09:47:28.193Z,76.30
2023-01-12T09:50:16.405Z,75.73
2023-01-12T09:52:55.695Z,75.48
2023-01-12T09:55:26.149Z,75.25
2023-01-12T09:57:56.604Z,75.33
2023-01-12T10:00:24.539Z,75.36
2023-01-12T10:03:00.028Z,75.41
2023-01-12T10:05:47.819Z,75.60
2023-01-12T10:08:38.201Z,75.95
2023-01-12T10:11:14.060Z,76.03
2023-01-12T10:14:00.297Z,76.16
2023-01-12T10:17:05.528Z,76.27
2023-01-12T10:20:00.069Z,76.43
2023-01-12T10:22:44.027Z,76.31
2023-01-12T10:25:27.363Z,76.38
2023-01-12T10:27:58.036Z,76.38
2023-01-12T10:30:32.081Z,75.94
2023-01-12T10:33:10.640Z,75.58
2023-01-12T10:35:48.654Z,74.87
2023-01-12T10:38:27.345Z,75.12
2023-01-12T10:41:17.234Z,74.68
2023-01-12T10:43:53.060Z,74.57
2023-01-12T10:46:22.406Z,74.31
2023-01-12T10:48:53.073Z,74.33
2023-01-12T10:51:27.918Z,74.04
2023-01-12T10:54:17.653Z,74.22
2023-01-12T10:57:01.966Z,74.44
2023-01-12T10:59:33.187Z,74.18
2023-01-12T11:02:07.267Z,74.23
2023-01-12T11:04:45.626Z,73.83
2023-01-12T11:07:16.481Z,74.22
2023-01-12T11:09:44.391Z,73.82
2023-01-12T11:12:37.904Z,73.58
2023-01-12T11:15:12.101Z,73.55
2023-01-12T11:17:46.970Z,73.80
2023-01-12T11:20:28.680Z,73.84
2023-01-12T11:23:01.172Z,74.04
2023-01-12T11:25:34.347Z,73.96
2023-01-12T11:28:07.395Z,74.11
2023-01-12T11:30:45.926Z,74.29
2023-01-12T11:33:19.943Z,74.30
2023-01-12T11:36:06.491Z,74.40
2023-01-12T11:38:40.940Z,74.31
2023-01-12T11:41:26.948Z,74.14
2023-01-12T11:44:20.058Z,73.98
2023-01-12T11:46:59.284Z,74.05
2023-01-12T11:49:34.736Z,74.06
2023-01-12T11:52:02.986Z,74.04
2023-01-12T11:54:31.879Z,73.91
2023-01-12T11:57:21.040Z,73.64
2023-01-12T11:59:57.919Z,73.77
2023-01-12T12:02:54.530Z,74.08
2023-01-12T12:05:22.119Z,73.86
2023-01-12T12:08:25.294Z,73.70
2023-01-12T12:10:55.948Z,73.70
2023-01-12T12:13:47.503Z,73.83
2023-01-12T12:16:23.447Z,73.68
2023-01-12T12:19:00.169Z,73.74
2023-01-12T12:21:30.582Z,73.94
2023-01-12T12:24:17.016Z,74.46
2023-01-12T12:26:56.380Z,73.17
2023-01-12T12:29:40.241Z,72.37
2023-01-12T12:32:26.984Z,70.65
2023-01-12T12:35:16.089Z,70.52
2023-01-12T12:38:29.592Z,70.94
2023-01-12T12:41:31.321Z,71.33
2023-01-12T12:44:34.383Z,71.64
2023-01-12T12:47:30.620Z,71.73
2023-01-12T12:50:00.661Z,72.18
2023-01-12T12:52:35.995Z,72.33
2023-01-12T12:55:05.035Z,72.58
2023-01-12T12:57:53.030Z,72.80
2023-01-12T13:00:40.264Z,72.76
2023-01-12T13:03:09.457Z,73.06
2023-01-12T13:05:48.212Z,73.07
2023-01-12T13:08:27.362Z,72.83
2023-01-12T13:10:57.720Z,72.59
2023-01-12T13:13:27.411Z,72.75
2023-01-12T13:16:20.472Z,72.53
2023-01-12T13:18:51.418Z,72.41
2023-01-12T13:21:29.093Z,72.26
2023-01-12T13:24:14.948Z,71.79
2023-01-12T13:26:44.636Z,71.68
2023-01-12T13:29:24.557Z,71.51
2023-01-12T13:31:56.631Z,71.75
2023-01-12T13:34:36.601Z,71.49
2023-01-12T13:37:22.408Z,71.20
2023-01-12T13:40:16.437Z,71.61
2023-01-12T13:43:04.253Z,71.59
2023-01-12T13:45:33.523Z,71.33
2023-01-12T13:48:01.380Z,71.24
2023-01-12T13:50:29.549Z,71.02
2023-01-12T13:52:59.612Z,71.20
2023-01-12T13:55:33.547Z,71.44
2023-01-12T13:58:16.857Z,71.21
2023-01-12T14:00:55.388Z,71.13
2023-01-12T14:03:37.416Z,71.10
2023-01-12T14:06:27.457Z,71.17
2023-01-12T14:09:01.377Z,71.04
2023-01-12T14:11:47.127Z,71.14
2023-01-12T14:14:58.040Z,71.11
2023-01-12T14:17:49.206Z,71.23
2023-01-12T14:20:23.781Z,71.12
2023-01-12T14:23:12.760Z,71.20
2023-01-12T14:25:41.039Z,71.32
2023-01-12T14:28:23.149Z,71.46
2023-01-12T14:30:53.243Z,71.30
2023-01-12T14:33:24.954Z,71.25
2023-01-12T14:35:56.193Z,71.57
2023-01-12T14:38:27.822Z,71.53
2023-01-12T14:41:02.517Z,71.48
2023-01-12T14:43:54.037Z,71.47
2023-01-12T14:46:33.906Z,71.65
2023-01-12T14:49:04.045Z,71.99
2023-01-12T14:51:35.628Z,71.97
2023-01-12T14:54:06.295Z,71.98
2023-01-12T14:56:50.231Z,72.07
2023-01-12T14:59:23.684Z,72.14
2023-01-12T15:02:07.729Z,72.28
2023-01-12T15:04:35.490Z,72.42
2023-01-12T15:07:08.273Z,72.48
2023-01-12T15:09:56.093Z,72.61
2023-01-12T15:12:30.488Z,72.95
2023-01-12T15:15:18.232Z,73.11
2023-01-12T15:18:05.397Z,73.22
2023-01-12T15:21:02.999Z,73.30
2023-01-12T15:23:54.595Z,73.36
2023-01-12T15:26:22.672Z,73.53
2023-01-12T15:28:50.888Z,73.60
2023-01-12T15:31:21.406Z,73.74
2023-01-12T15:33:49.220Z,73.93
2023-01-12T15:36:17.203Z,74.17
2023-01-12T15:38:44.874Z,74.35
2023-01-12T15:41:41.314Z,74.48
2023-01-12T15:44:20.507Z,74.58
2023-01-12T15:46:48.353Z,74.74
2023-01-12T15:49:16.408Z,74.93
2023-01-12T15:51:47.553Z,75.07
2023-01-12T15:54:18.265Z,75.20
2023-01-12T15:56:46.710Z,75.25
2023-01-12T15:59:14.812Z,75.34
2023-01-12T16:01:47.976Z,75.46
2023-01-12T16:04:45.800Z,75.63
2023-01-12T16:07:05.787Z,75.69
2023-01-12T16:09:33.538Z,75.84
2023-01-12T16:12:01.217Z,75.88
2023-01-12T16:14:28.951Z,76.01
2023-01-12T16:16:56.583Z,76.08
2023-01-12T16:19:24.310Z,76.16
2023-01-12T16:21:54.950Z,76.32
2023-01-12T16:24:26.577Z,76.35
2023-01-12T16:26:54.463Z,76.37
2023-01-12T16:29:23.725Z,76.39
2023-01-12T16:31:51.680Z,76.51
2023-01-12T16:34:22.841Z,76.66
2023-01-12T16:36:50.829Z,76.77
2023-01-12T16:39:18.813Z,76.80
2023-01-12T16:41:46.707Z,76.85
2023-01-12T16:44:14.414Z,76.91
2023-01-12T16:46:42.809Z,76.90
2023-01-12T16:49:10.543Z,77.06
2023-01-12T16:51:38.300Z,77.21
2023-01-12T16:54:06.044Z,77.37
2023-01-12T16:56:33.705Z,77.42
2023-01-12T16:59:01.489Z,77.52
2023-01-12T17:01:29.975Z,77.60
2023-01-12T17:03:58.153Z,77.73
2023-01-12T17:06:27.994Z,77.87
2023-01-12T17:08:55.955Z,77.98
2023-01-12T17:11:24.310Z,78.10
2023-01-12T17:13:54.744Z,78.15
2023-01-12T17:16:24.751Z,78.27
2023-01-12T17:18:53.754Z,78.33
2023-01-12T17:21:22.115Z,78.45
2023-01-12T17:23:49.954Z,78.78
2023-01-12T17:26:19.099Z,78.87
2023-01-12T17:28:47.333Z,79.01
2023-01-12T17:31:17.695Z,78.95
2023-01-12T17:33:46.937Z,78.99
2023-01-12T17:36:14.852Z,78.95
2023-01-12T17:38:42.566Z,78.98
2023-01-12T17:41:35.177Z,78.96
2023-01-12T17:44:05.159Z,79.03
2023-01-12T17:46:34.159Z,78.94
2023-01-12T17:49:06.662Z,78.92
2023-01-12T17:51:35.007Z,78.92
2023-01-12T17:54:04.685Z,78.84
2023-01-12T17:56:33.868Z,78.76
2023-01-12T17:59:03.074Z,78.68
2023-01-12T18:01:34.550Z,78.63
2023-01-12T18:04:03.128Z,78.57
2023-01-12T18:06:31.026Z,78.57
2023-01-12T18:09:01.463Z,78.52
2023-01-12T18:11:31.227Z,78.47
2023-01-12T18:14:01.188Z,78.43
2023-01-12T18:16:29.768Z,78.39
2023-01-12T18:18:58.185Z,78.36
2023-01-12T18:21:27.644Z,78.32
2023-01-12T18:23:56.369Z,78.29
2023-01-12T18:26:27.107Z,78.26
2023-01-12T18:28:56.501Z,78.23
2023-01-12T18:31:28.538Z,78.17
2023-01-12T18:34:01.877Z,78.12
2023-01-12T18:36:30.865Z,78.09
2023-01-12T18:38:59.040Z,78.02
2023-01-12T18:41:45.797Z,77.97
2023-01-12T18:44:13.806Z,77.92
2023-01-12T18:47:09.542Z,77.82
2023-01-12T18:49:39.468Z,77.74
2023-01-12T18:52:30.428Z,77.68
2023-01-12T18:54:58.992Z,77.60
2023-01-12T18:57:29.813Z,77.54
2023-01-12T19:00:00.516Z,77.53
2023-01-12T19:02:29.929Z,77.45
2023-01-12T19:05:16.934Z,77.38
2023-01-12T19:07:59.862Z,77.36
2023-01-12T19:10:29.020Z,77.32
2023-01-12T19:13:17.317Z,77.30
2023-01-12T19:16:03.644Z,77.23
2023-01-12T19:18:31.572Z,77.13
2023-01-12T19:21:22.286Z,77.08
2023-01-12T19:24:08.769Z,77.03
2023-01-12T19:26:55.092Z,77.01
2023-01-12T19:29:22.765Z,76.97
2023-01-12T19:31:50.504Z,76.93
2023-01-12T19:34:18.869Z,76.91
2023-01-12T19:36:46.620Z,76.88
2023-01-12T19:39:15.285Z,76.85
2023-01-12T19:42:03.755Z,76.80
2023-01-12T19:44:31.476Z,76.83
2023-01-12T19:46:59.158Z,76.78
2023-01-12T19:49:26.864Z,76.73
2023-01-12T19:51:54.703Z,76.72
2023-01-12T19:54:22.409Z,76.74
2023-01-12T19:56:50.183Z,76.68
2023-01-12T19:59:18.273Z,76.66
2023-01-12T20:01:46.143Z,76.65
2023-01-12T20:04:14.160Z,76.63
2023-01-12T20:06:43.384Z,76.54
2023-01-12T20:09:12.266Z,76.47
2023-01-12T20:11:41.056Z,76.44
2023-01-12T20:14:08.962Z,76.34
2023-01-12T20:16:36.842Z,76.30
2023-01-12T20:19:04.580Z,76.21
2023-01-12T20:21:32.626Z,76.16
2023-01-12T20:24:03.153Z,76.10
2023-01-12T20:26:31.418Z,76.05
2023-01-12T20:28:59.841Z,75.98
2023-01-12T20:31:28.058Z,75.95
2023-01-12T20:33:55.781Z,75.90
2023-01-12T20:36:23.521Z,75.88
2023-01-12T20:38:51.858Z,75.80
2023-01-12T20:41:19.982Z,75.76
2023-01-12T20:43:47.792Z,75.72
2023-01-12T20:46:16.211Z,75.63
2023-01-12T20:48:45.006Z,75.65
2023-01-12T20:51:15.850Z,75.63
2023-01-12T20:53:44.213Z,75.54
2023-01-12T20:56:12.344Z,75.52
2023-01-12T20:58:40.288Z,75.70
2023-01-12T21:01:10.357Z,74.87
2023-01-12T21:03:38.551Z,73.80
2023-01-12T21:06:10.930Z,72.50
2023-01-12T21:08:40.010Z,71.90
2023-01-12T21:11:07.736Z,71.58
2023-01-12T21:13:36.212Z,71.04
2023-01-12T21:16:06.985Z,70.07
2023-01-12T21:18:35.200Z,69.76
2023-01-12T21:21:03.399Z,68.81
2023-01-12T21:23:31.641Z,68.36
2023-01-12T21:25:59.625Z,68.16
2023-01-12T21:28:30.207Z,68.90
2023-01-12T21:31:03.068Z,69.66
2023-01-12T21:33:30.990Z,70.51
2023-01-12T21:35:59.186Z,70.89
2023-01-12T21:38:27.685Z,71.42
2023-01-12T21:40:55.760Z,72.07
2023-01-12T21:43:23.493Z,72.32
2023-01-12T21:45:52.765Z,72.50
2023-01-12T21:48:22.842Z,72.77
2023-01-12T21:50:50.921Z,73.07
2023-01-12T21:53:21.573Z,73.22
2023-01-12T21:55:55.491Z,73.30
2023-01-12T21:58:24.386Z,73.34
2023-01-12T22:00:52.239Z,73.36
2023-01-12T22:03:23.752Z,73.49
2023-01-12T22:05:51.622Z,73.54
2023-01-12T22:08:19.684Z,73.55
2023-01-12T22:10:48.078Z,73.52
2023-01-12T22:13:17.319Z,73.53
2023-01-12T22:15:46.216Z,73.53
2023-01-12T22:18:13.853Z,73.56
2023-01-12T22:20:42.208Z,73.58
2023-01-12T22:23:13.054Z,73.60
2023-01-12T22:25:40.943Z,73.57
2023-01-12T22:28:08.599Z,73.57
2023-01-12T22:30:36.369Z,73.67
2023-01-12T22:33:04.212Z,73.74
2023-01-12T22:35:31.939Z,73.68
2023-01-12T22:37:59.581Z,73.85
2023-01-12T22:40:27.240Z,73.95
2023-01-12T22:43:13.625Z,74.04
2023-01-12T22:45:41.303Z,74.07
2023-01-12T22:48:08.998Z,74.07
2023-01-12T22:50:36.813Z,74.06
2023-01-12T22:53:04.468Z,74.10
2023-01-12T22:55:32.257Z,74.14
2023-01-12T22:58:00.445Z,74.14
2023-01-12T23:00:28.394Z,74.12
2023-01-12T23:03:02.621Z,74.13
2023-01-12T23:05:36.525Z,74.11
2023-01-12T23:08:06.055Z,74.08
2023-01-12T23:10:34.078Z,74.11
2023-01-12T23:13:11.580Z,74.09
2023-01-12T23:15:53.408Z,74.11
2023-01-12T23:18:29.524Z,74.12
2023-01-12T23:21:25.133Z,74.14
2023-01-12T23:23:55.728Z,74.28
2023-01-12T23:26:26.030Z,74.34
2023-01-12T23:28:56.507Z,74.34
2023-01-12T23:31:27.185Z,74.34
2023-01-12T23:33:57.134Z,74.40
2023-01-12T23:36:27.326Z,74.38
2023-01-12T23:38:57.781Z,74.40
2023-01-12T23:41:27.873Z,74.44
2023-01-12T23:43:59.219Z,74.46
2023-01-12T23:46:29.289Z,74.47
2023-01-12T23:48:57.717Z,74.57
2023-01-12T23:51:27.531Z,74.63
2023-01-12T23:53:58.535Z,74.65
2023-01-12T23:56:31.760Z,74.73
2023-01-12T23:58:59.442Z,74.73
